Terminal Aerodrome Forecast
Issued by NWS

Current Version | Previous Version | Text Only | Print | Product List | Glossary On
Versions: 1 2 3 4 5 6 7 8 9 10 11 12 13
000
FTUS42 KMLB 220500
TAFISM
TAF
KISM 220539Z 2206/2306 00000KT P6SM FEW250
     FM221400 VRB03KT P6SM FEW040
     FM222100 12005KT P6SM VCSH SCT045 SCT080
      AMD NOT SKED TIL 221100=

USA.gov is the U.S. government's official web portal to all federal, state and local government web resources and services.